createdAt,value
2022-07-28T00:00:30.444Z,17.20
2022-07-28T00:05:47.318Z,17.23
2022-07-28T00:10:53.379Z,17.00
2022-07-28T00:15:56.851Z,17.09
2022-07-28T00:21:02.393Z,17.06
2022-07-28T00:26:05.842Z,17.10
2022-07-28T00:31:11.284Z,17.02
2022-07-28T00:36:18.305Z,16.91
2022-07-28T00:41:28.237Z,17.02
2022-07-28T00:46:31.807Z,16.89
2022-07-28T00:51:37.046Z,16.86
2022-07-28T00:56:40.965Z,16.76
2022-07-28T01:01:44.368Z,16.40
2022-07-28T01:07:09.012Z,16.25
2022-07-28T01:12:21.583Z,16.12
2022-07-28T01:17:37.131Z,16.01
2022-07-28T01:22:52.388Z,16.08
2022-07-28T01:28:10.713Z,15.93
2022-07-28T01:33:19.755Z,15.91
2022-07-28T01:38:25.068Z,15.77
2022-07-28T01:43:32.353Z,15.92
2022-07-28T01:48:40.309Z,15.98
2022-07-28T01:53:45.920Z,15.99
2022-07-28T01:58:52.275Z,16.15
2022-07-28T02:03:59.209Z,16.11
2022-07-28T02:09:04.992Z,16.09
2022-07-28T02:14:09.892Z,15.94
2022-07-28T02:19:15.437Z,15.83
2022-07-28T02:24:23.095Z,15.64
2022-07-28T02:29:49.661Z,15.68
2022-07-28T02:34:54.687Z,15.68
2022-07-28T02:40:01.352Z,15.39
2022-07-28T02:45:08.085Z,15.22
2022-07-28T02:50:15.568Z,15.11
2022-07-28T02:55:19.593Z,15.02
2022-07-28T03:00:23.657Z,15.10
2022-07-28T03:05:29.281Z,15.24
2022-07-28T03:16:20.331Z,15.39
2022-07-28T03:21:25.781Z,15.29
2022-07-28T03:26:37.104Z,15.42
2022-07-28T03:31:44.673Z,15.58
2022-07-28T03:36:55.216Z,15.73
2022-07-28T03:42:00.597Z,15.55
2022-07-28T03:47:03.980Z,15.65
2022-07-28T03:52:08.864Z,15.83
2022-07-28T03:57:12.762Z,15.76
2022-07-28T04:02:17.035Z,15.86
2022-07-28T04:07:21.791Z,15.86
2022-07-28T04:12:25.141Z,15.64
2022-07-28T04:17:28.548Z,15.85
2022-07-28T04:22:33.247Z,15.81
2022-07-28T04:27:37.422Z,16.06
2022-07-28T04:32:41.278Z,16.15
2022-07-28T04:37:46.457Z,16.10
2022-07-28T04:42:50.451Z,15.98
2022-07-28T04:47:53.806Z,16.02
2022-07-28T04:52:59.001Z,15.99
2022-07-28T04:58:02.383Z,16.22
2022-07-28T05:03:07.152Z,16.28
2022-07-28T05:08:11.812Z,16.40
2022-07-28T05:13:15.573Z,16.29
2022-07-28T05:18:18.959Z,16.59
2022-07-28T05:23:23.714Z,16.20
2022-07-28T05:28:27.139Z,16.40
2022-07-28T05:33:32.132Z,16.39
2022-07-28T05:38:36.885Z,16.51
2022-07-28T05:43:40.214Z,16.58
2022-07-28T05:48:43.627Z,16.92
2022-07-28T05:53:48.424Z,17.26
2022-07-28T05:58:53.056Z,17.58
2022-07-28T06:04:26.162Z,18.33
2022-07-28T06:09:21.153Z,20.69
2022-07-28T06:14:24.487Z,21.90
2022-07-28T06:19:27.982Z,21.06
2022-07-28T06:24:42.397Z,21.13
2022-07-28T06:29:50.873Z,23.18
2022-07-28T06:34:54.639Z,24.83
2022-07-28T06:39:59.632Z,27.90
2022-07-28T06:45:03.016Z,26.93
2022-07-28T06:50:08.160Z,28.95
2022-07-28T06:55:34.418Z,29.91
2022-07-28T07:00:39.488Z,29.82
2022-07-28T07:05:43.316Z,30.82
2022-07-28T07:10:48.006Z,31.20
2022-07-28T07:15:51.483Z,31.58
2022-07-28T07:20:55.710Z,31.78
2022-07-28T07:26:00.464Z,31.77
2022-07-28T07:31:04.108Z,32.31
2022-07-28T07:36:08.021Z,31.15
2022-07-28T07:41:13.209Z,32.03
2022-07-28T07:46:17.471Z,32.54
2022-07-28T07:51:21.119Z,32.57
2022-07-28T07:56:25.803Z,34.56
2022-07-28T08:01:29.176Z,35.25
2022-07-28T08:06:32.657Z,34.83
2022-07-28T08:11:40.550Z,35.51
2022-07-28T08:16:44.020Z,35.80
2022-07-28T08:21:47.512Z,32.90
2022-07-28T08:26:52.720Z,36.77
2022-07-28T08:31:56.074Z,35.04
2022-07-28T08:36:59.907Z,35.81
2022-07-28T08:42:07.206Z,37.03
2022-07-28T08:47:12.329Z,36.85
2022-07-28T08:52:15.864Z,35.11
2022-07-28T08:57:27.037Z,34.99
2022-07-28T09:02:33.966Z,32.63
2022-07-28T09:07:41.671Z,32.21
2022-07-28T09:12:46.670Z,32.99
2022-07-28T09:17:54.487Z,32.73
2022-07-28T09:23:00.923Z,31.92
2022-07-28T09:28:11.209Z,30.13
2022-07-28T09:33:41.200Z,30.30
2022-07-28T09:38:42.279Z,29.39
2022-07-28T09:43:52.512Z,28.87
2022-07-28T09:48:59.906Z,28.87
2022-07-28T09:54:12.423Z,27.63
2022-07-28T09:59:18.647Z,27.95
2022-07-28T10:04:33.852Z,27.24
2022-07-28T10:09:37.754Z,27.33
2022-07-28T10:14:42.464Z,28.09
2022-07-28T10:19:45.796Z,28.32
2022-07-28T10:24:52.877Z,28.73
2022-07-28T10:30:00.035Z,28.53
2022-07-28T10:35:06.357Z,28.58
2022-07-28T10:40:12.695Z,29.15
2022-07-28T10:45:18.120Z,28.96
2022-07-28T10:50:22.372Z,28.99
2022-07-28T10:55:34.919Z,28.97
2022-07-28T11:00:55.285Z,28.67
2022-07-28T11:05:59.803Z,29.10
2022-07-28T11:11:07.600Z,29.74
2022-07-28T11:16:24.926Z,29.59
2022-07-28T11:21:30.976Z,29.48
2022-07-28T11:26:46.035Z,29.62
2022-07-28T11:32:05.116Z,29.35
2022-07-28T11:37:10.276Z,29.35
2022-07-28T11:42:26.157Z,29.60
2022-07-28T11:47:31.883Z,28.65
2022-07-28T11:52:35.231Z,28.12
2022-07-28T11:57:44.150Z,26.77
2022-07-28T12:02:49.135Z,27.49
2022-07-28T12:07:53.749Z,28.67
2022-07-28T12:12:58.949Z,29.23
2022-07-28T12:18:04.099Z,28.54
2022-07-28T12:23:10.397Z,28.57
2022-07-28T12:28:15.778Z,29.28
2022-07-28T12:33:27.463Z,30.15
2022-07-28T12:38:33.162Z,29.81
2022-07-28T12:43:36.723Z,28.60
2022-07-28T12:48:42.609Z,29.53
2022-07-28T12:53:52.002Z,30.94
2022-07-28T12:59:06.323Z,31.75
2022-07-28T13:04:11.237Z,33.28
2022-07-28T13:09:23.399Z,34.03
2022-07-28T13:14:42.494Z,35.66
2022-07-28T13:19:48.635Z,35.57
2022-07-28T13:24:51.989Z,32.02
2022-07-28T13:29:56.398Z,28.99
2022-07-28T13:35:03.206Z,33.15
2022-07-28T13:40:07.629Z,34.44
2022-07-28T13:45:11.579Z,35.38
2022-07-28T13:50:22.097Z,33.45
2022-07-28T13:55:27.511Z,35.26
2022-07-28T14:00:30.978Z,31.72
2022-07-28T14:05:36.118Z,31.66
2022-07-28T14:10:40.026Z,30.15
2022-07-28T14:15:43.515Z,28.30
2022-07-28T14:20:48.288Z,27.26
2022-07-28T14:25:52.194Z,26.68
2022-07-28T14:30:55.728Z,26.97
2022-07-28T14:36:00.559Z,30.59
2022-07-28T14:41:03.975Z,33.93
2022-07-28T14:46:16.204Z,35.47
2022-07-28T14:51:25.616Z,35.55
2022-07-28T14:56:28.993Z,34.56
2022-07-28T15:01:35.697Z,33.81
2022-07-28T15:06:41.126Z,32.24
2022-07-28T15:11:46.382Z,28.76
2022-07-28T15:16:50.137Z,27.37
2022-07-28T15:21:54.861Z,27.02
2022-07-28T15:26:58.311Z,27.42
2022-07-28T15:32:02.013Z,26.86
2022-07-28T15:37:09.226Z,26.25
2022-07-28T15:42:13.133Z,25.97
2022-07-28T15:47:16.668Z,26.70
2022-07-28T15:52:21.402Z,28.00
2022-07-28T15:57:24.736Z,28.14
2022-07-28T16:02:41.121Z,26.53
2022-07-28T16:07:46.076Z,26.32
2022-07-28T16:12:49.437Z,25.85
2022-07-28T16:17:52.833Z,25.59
2022-07-28T16:22:58.486Z,25.30
2022-07-28T16:28:03.611Z,26.31
2022-07-28T16:33:08.049Z,26.48
2022-07-28T16:38:13.058Z,26.44
2022-07-28T16:43:16.712Z,26.02
2022-07-28T16:48:20.861Z,25.55
2022-07-28T16:53:25.573Z,25.15
2022-07-28T16:58:29.280Z,25.02
2022-07-28T17:03:32.723Z,24.76
2022-07-28T17:08:37.779Z,24.63
2022-07-28T17:13:45.166Z,24.55
2022-07-28T17:18:49.092Z,24.41
2022-07-28T17:23:54.127Z,24.15
2022-07-28T17:28:58.427Z,24.09
2022-07-28T17:34:01.898Z,23.94
2022-07-28T17:39:08.059Z,23.84
2022-07-28T17:44:11.571Z,23.72
2022-07-28T17:49:15.075Z,23.62
2022-07-28T17:54:23.590Z,23.47
2022-07-28T17:59:34.314Z,23.33
2022-07-28T18:04:51.287Z,23.08
2022-07-28T18:09:55.998Z,22.84
2022-07-28T18:14:59.533Z,22.78
2022-07-28T18:20:03.180Z,22.54
2022-07-28T18:25:08.989Z,22.32
2022-07-28T18:30:14.335Z,22.15
2022-07-28T18:35:18.430Z,22.03
2022-07-28T18:40:24.058Z,22.02
2022-07-28T18:45:27.573Z,21.84
2022-07-28T18:50:31.847Z,21.67
2022-07-28T18:55:36.899Z,21.44
2022-07-28T19:00:40.472Z,21.26
2022-07-28T19:05:46.218Z,21.19
2022-07-28T19:10:51.698Z,21.09
2022-07-28T19:15:55.250Z,21.06
2022-07-28T19:20:58.900Z,20.73
2022-07-28T19:26:03.912Z,20.72
2022-07-28T19:31:10.187Z,20.64
2022-07-28T19:36:14.831Z,20.55
2022-07-28T19:41:20.005Z,20.45
2022-07-28T19:46:24.337Z,20.39
2022-07-28T19:51:29.766Z,20.25
2022-07-28T19:56:34.855Z,20.23
2022-07-28T20:01:45.977Z,20.13
2022-07-28T20:06:55.636Z,20.02
2022-07-28T20:12:00.583Z,19.93
2022-07-28T20:17:04.303Z,19.80
2022-07-28T20:22:08.015Z,19.57
2022-07-28T20:27:12.763Z,19.44
2022-07-28T20:32:16.145Z,19.41
2022-07-28T20:37:35.665Z,19.33
2022-07-28T20:42:41.950Z,19.25
2022-07-28T20:47:45.761Z,19.21
2022-07-28T20:52:49.310Z,19.11
2022-07-28T20:57:55.985Z,18.99
2022-07-28T21:03:00.580Z,18.96
2022-07-28T21:08:09.136Z,18.93
2022-07-28T21:13:15.050Z,18.76
2022-07-28T21:18:18.477Z,18.76
2022-07-28T21:23:21.873Z,18.75
2022-07-28T21:28:44.380Z,18.64
2022-07-28T21:33:47.751Z,18.54
2022-07-28T21:38:51.101Z,18.53
2022-07-28T21:44:00.817Z,18.42
2022-07-28T21:49:07.152Z,18.30
2022-07-28T21:54:10.508Z,18.33
2022-07-28T21:59:15.215Z,18.17
2022-07-28T22:04:19.559Z,18.19
2022-07-28T22:09:23.445Z,18.16
2022-07-28T22:14:32.298Z,18.09
2022-07-28T22:19:35.577Z,17.95
2022-07-28T22:24:38.892Z,17.99
2022-07-28T22:29:50.021Z,17.88
2022-07-28T22:34:55.564Z,17.84
2022-07-28T22:39:59.227Z,17.70
2022-07-28T22:45:04.008Z,17.55
2022-07-28T22:50:09.206Z,17.62
2022-07-28T23:00:36.238Z,17.52
2022-07-28T23:05:40.105Z,17.49
2022-07-28T23:10:43.417Z,17.42
2022-07-28T23:15:48.151Z,17.37
2022-07-28T23:20:51.485Z,17.32
2022-07-28T23:25:54.852Z,17.17
2022-07-28T23:30:59.628Z,17.23
2022-07-28T23:36:02.922Z,17.15
2022-07-28T23:41:11.530Z,17.06
2022-07-28T23:46:16.287Z,17.05
2022-07-28T23:51:21.302Z,16.89
2022-07-28T23:56:24.818Z,16.95
